createdAt,value
2019-05-20T00:00:57.564Z,6.28
2019-05-20T00:03:26.569Z,5.87
2019-05-20T00:05:55.739Z,2.65
2019-05-20T00:08:24.807Z,2.67
2019-05-20T00:10:53.799Z,3.12
2019-05-20T00:13:22.866Z,3.35
2019-05-20T00:15:52.054Z,5.20
2019-05-20T00:18:21.260Z,5.70
2019-05-20T00:20:50.543Z,5.62
2019-05-20T00:23:19.851Z,3.15
2019-05-20T00:25:48.947Z,7.00
2019-05-20T00:28:17.747Z,6.55
2019-05-20T00:30:47.062Z,4.70
2019-05-20T00:33:16.100Z,5.20
2019-05-20T00:35:45.283Z,8.73
2019-05-20T00:38:14.725Z,5.78
2019-05-20T00:40:43.865Z,5.03
2019-05-20T00:43:13.100Z,7.17
2019-05-20T00:45:42.649Z,6.05
2019-05-20T00:48:11.926Z,7.80
2019-05-20T00:50:41.214Z,7.42
2019-05-20T00:53:10.636Z,4.95
2019-05-20T00:55:39.773Z,8.03
2019-05-20T00:58:09.147Z,8.30
2019-05-20T01:00:38.383Z,6.62
2019-05-20T01:03:07.676Z,10.98
2019-05-20T01:05:36.871Z,8.80
2019-05-20T01:08:06.098Z,10.15
2019-05-20T01:10:35.237Z,4.60
2019-05-20T01:13:04.410Z,7.85
2019-05-20T01:15:33.493Z,6.30
2019-05-20T01:18:02.659Z,9.00
2019-05-20T01:20:31.722Z,6.80
2019-05-20T01:23:00.693Z,5.87
2019-05-20T01:25:29.824Z,9.95
2019-05-20T01:27:59.308Z,4.62
2019-05-20T01:30:28.522Z,6.15
2019-05-20T01:33:10.958Z,11.08
2019-05-20T01:35:28.484Z,6.40
2019-05-20T01:37:57.430Z,6.25
2019-05-20T01:40:26.513Z,5.30
2019-05-20T01:42:55.758Z,5.55
2019-05-20T01:45:25.307Z,7.00
2019-05-20T01:47:54.398Z,6.10
2019-05-20T01:50:23.381Z,7.05
2019-05-20T01:52:52.679Z,6.72
2019-05-20T01:55:21.614Z,9.90
2019-05-20T01:57:50.711Z,5.65
2019-05-20T02:00:21.622Z,5.87
2019-05-20T02:02:50.871Z,7.10
2019-05-20T02:05:19.890Z,10.72
2019-05-20T02:07:49.016Z,8.33
2019-05-20T02:10:18.354Z,7.67
2019-05-20T02:12:47.487Z,7.10
2019-05-20T02:15:36.759Z,8.95
2019-05-20T02:18:05.748Z,8.55
2019-05-20T02:20:34.758Z,7.53
2019-05-20T02:23:14.500Z,9.28
2019-05-20T02:25:47.258Z,9.70
2019-05-20T02:28:16.302Z,8.15
2019-05-20T02:30:45.622Z,6.92
2019-05-20T02:33:14.781Z,6.58
2019-05-20T02:35:44.215Z,9.55
2019-05-20T02:38:13.680Z,4.95
2019-05-20T02:40:42.881Z,7.65
2019-05-20T02:43:11.917Z,5.35
2019-05-20T02:45:41.159Z,7.28
2019-05-20T02:48:10.544Z,8.63
2019-05-20T02:50:39.693Z,11.15
2019-05-20T02:53:08.863Z,6.22
2019-05-20T02:55:37.736Z,10.23
2019-05-20T02:58:06.665Z,8.38
2019-05-20T03:00:35.862Z,6.08
2019-05-20T03:03:04.851Z,7.28
2019-05-20T03:05:33.940Z,7.80
2019-05-20T03:08:02.992Z,7.55
2019-05-20T03:10:32.094Z,8.58
2019-05-20T03:13:01.102Z,6.58
2019-05-20T03:15:30.110Z,3.52
2019-05-20T03:17:59.379Z,6.35
2019-05-20T03:20:28.349Z,5.87
2019-05-20T03:22:57.293Z,6.55
2019-05-20T03:25:26.817Z,6.08
2019-05-20T03:27:56.261Z,10.50
2019-05-20T03:30:25.421Z,6.35
2019-05-20T03:32:54.405Z,7.10
2019-05-20T03:35:23.572Z,9.30
2019-05-20T03:37:52.521Z,9.90
2019-05-20T03:40:21.464Z,9.58
2019-05-20T03:42:50.466Z,8.38
2019-05-20T03:45:19.863Z,5.10
2019-05-20T03:47:48.750Z,6.00
2019-05-20T03:50:18.059Z,5.60
2019-05-20T03:52:46.939Z,7.05
2019-05-20T03:55:16.237Z,5.30
2019-05-20T03:58:05.921Z,6.03
2019-05-20T04:00:38.012Z,5.95
2019-05-20T04:03:07.217Z,6.95
2019-05-20T04:05:36.653Z,4.15
2019-05-20T04:08:06.000Z,3.67
2019-05-20T04:10:35.199Z,5.10
2019-05-20T04:13:04.461Z,10.58
2019-05-20T04:15:33.852Z,9.90
2019-05-20T04:18:02.970Z,8.53
2019-05-20T04:20:32.057Z,7.92
2019-05-20T04:23:01.218Z,11.45
2019-05-20T04:25:30.339Z,5.92
2019-05-20T04:27:59.356Z,5.72
2019-05-20T04:30:28.465Z,5.65
2019-05-20T04:32:57.582Z,12.85
2019-05-20T04:35:26.823Z,7.15
2019-05-20T04:37:56.232Z,6.95
2019-05-20T04:40:25.408Z,8.05
2019-05-20T04:42:54.241Z,6.10
2019-05-20T04:45:23.762Z,5.60
2019-05-20T04:47:53.120Z,16.90
2019-05-20T04:50:22.487Z,7.33
2019-05-20T04:52:51.553Z,5.80
2019-05-20T04:55:20.751Z,11.45
2019-05-20T04:57:50.207Z,10.80
2019-05-20T05:00:39.220Z,14.35
2019-05-20T05:03:08.473Z,10.43
2019-05-20T05:05:38.156Z,8.68
2019-05-20T05:08:07.467Z,10.10
2019-05-20T05:10:36.545Z,10.72
2019-05-20T05:13:05.492Z,11.22
2019-05-20T05:15:34.423Z,7.37
2019-05-20T05:18:03.471Z,9.53
2019-05-20T05:20:32.653Z,7.05
2019-05-20T05:23:01.651Z,3.12
2019-05-20T05:25:30.584Z,12.23
2019-05-20T05:27:59.982Z,4.20
2019-05-20T05:30:29.296Z,12.68
2019-05-20T05:32:58.437Z,13.72
2019-05-20T05:35:27.348Z,9.08
2019-05-20T05:37:56.608Z,10.05
2019-05-20T05:40:30.269Z,21.37
2019-05-20T05:42:59.383Z,14.45
2019-05-20T05:45:32.424Z,20.62
2019-05-20T05:48:01.545Z,10.20
2019-05-20T05:50:30.853Z,12.30
2019-05-20T05:52:59.872Z,9.40
2019-05-20T05:55:29.170Z,10.20
2019-05-20T05:57:58.241Z,8.28
2019-05-20T06:00:27.375Z,11.48
2019-05-20T06:02:56.643Z,9.93
2019-05-20T06:05:26.083Z,8.15
2019-05-20T06:07:55.105Z,10.13
2019-05-20T06:10:24.305Z,11.03
2019-05-20T06:12:53.611Z,10.18
2019-05-20T06:15:22.826Z,13.15
2019-05-20T06:17:52.242Z,10.70
2019-05-20T06:20:21.569Z,10.00
2019-05-20T06:22:50.738Z,7.33
2019-05-20T06:25:20.273Z,13.20
2019-05-20T06:27:49.336Z,8.53
2019-05-20T06:30:18.517Z,14.83
2019-05-20T06:32:48.120Z,13.35
2019-05-20T06:35:17.665Z,5.92
2019-05-20T06:37:48.564Z,12.10
2019-05-20T06:40:17.634Z,9.60
2019-05-20T06:42:47.032Z,13.85
2019-05-20T06:45:16.080Z,6.75
2019-05-20T06:47:45.906Z,2.40
2019-05-20T06:50:14.884Z,6.37
2019-05-20T06:52:44.011Z,10.70
2019-05-20T06:55:13.312Z,12.23
2019-05-20T06:57:42.535Z,7.60
2019-05-20T07:00:12.999Z,8.48
2019-05-20T07:02:42.225Z,4.73
2019-05-20T07:05:11.608Z,9.23
2019-05-20T07:07:40.769Z,6.95
2019-05-20T07:10:09.868Z,5.90
2019-05-20T07:12:41.447Z,9.15
2019-05-20T07:15:09.467Z,7.63
2019-05-20T07:17:38.894Z,7.47
2019-05-20T07:20:08.482Z,3.90
2019-05-20T07:22:54.607Z,4.62
2019-05-20T07:25:08.456Z,5.58
2019-05-20T07:27:37.826Z,3.15
2019-05-20T07:30:06.830Z,3.67
2019-05-20T07:32:36.441Z,10.48
2019-05-20T07:35:08.821Z,5.87
2019-05-20T07:37:38.011Z,8.23
2019-05-20T07:40:13.712Z,8.00
2019-05-20T07:42:43.291Z,5.30
2019-05-20T07:45:13.048Z,6.83
2019-05-20T07:47:42.584Z,4.47
2019-05-20T07:50:12.193Z,5.80
2019-05-20T07:52:41.477Z,6.60
2019-05-20T07:55:11.007Z,5.72
2019-05-20T07:57:40.400Z,7.37
2019-05-20T08:00:10.015Z,6.75
2019-05-20T08:02:39.812Z,2.80
2019-05-20T08:05:09.741Z,5.47
2019-05-20T08:07:51.285Z,7.15
2019-05-20T08:10:09.599Z,3.65
2019-05-20T08:12:39.172Z,7.50
2019-05-20T08:15:09.038Z,4.25
2019-05-20T08:17:38.716Z,3.80
2019-05-20T08:20:07.872Z,4.55
2019-05-20T08:22:37.109Z,6.17
2019-05-20T08:25:07.508Z,6.67
2019-05-20T08:27:36.690Z,6.15
2019-05-20T08:30:13.675Z,3.55
2019-05-20T08:32:40.689Z,9.35
2019-05-20T08:35:09.956Z,3.20
2019-05-20T08:37:45.322Z,7.62
2019-05-20T08:40:10.063Z,5.83
2019-05-20T08:42:39.123Z,5.60
2019-05-20T08:45:08.357Z,8.73
2019-05-20T08:47:37.574Z,7.28
2019-05-20T08:50:11.219Z,7.12
2019-05-20T08:52:37.914Z,7.10
2019-05-20T08:55:08.313Z,6.35
2019-05-20T08:57:37.780Z,14.35
2019-05-20T09:00:07.093Z,4.92
2019-05-20T09:02:36.477Z,4.05
2019-05-20T09:05:06.891Z,5.12
2019-05-20T09:07:35.977Z,3.65
2019-05-20T09:10:05.501Z,6.37
2019-05-20T09:12:34.733Z,13.20
2019-05-20T09:15:04.622Z,6.85
2019-05-20T09:17:33.859Z,6.35
2019-05-20T09:20:03.163Z,8.80
2019-05-20T09:22:32.393Z,8.55
2019-05-20T09:25:02.191Z,4.83
2019-05-20T09:27:31.817Z,4.70
2019-05-20T09:30:01.641Z,6.05
2019-05-20T09:32:31.495Z,7.80
2019-05-20T09:35:01.035Z,4.60
2019-05-20T09:37:30.310Z,3.87
2019-05-20T09:39:59.325Z,10.80
2019-05-20T09:42:28.477Z,5.58
2019-05-20T09:44:57.482Z,5.50
2019-05-20T09:47:26.728Z,4.95
2019-05-20T09:49:56.025Z,3.05
2019-05-20T09:52:25.416Z,6.30
2019-05-20T09:54:54.752Z,6.55
2019-05-20T09:57:25.415Z,2.92
2019-05-20T09:59:54.224Z,4.30
2019-05-20T10:02:32.674Z,3.95
2019-05-20T10:04:54.769Z,6.55
2019-05-20T10:07:24.158Z,5.42
2019-05-20T10:09:53.393Z,8.38
2019-05-20T10:12:22.824Z,7.08
2019-05-20T10:14:52.866Z,5.15
2019-05-20T10:17:22.282Z,4.35
2019-05-20T10:19:51.615Z,4.90
2019-05-20T10:22:20.935Z,5.17
2019-05-20T10:24:50.539Z,7.90
2019-05-20T10:27:19.643Z,10.70
2019-05-20T10:29:49.063Z,6.60
2019-05-20T10:32:18.168Z,9.90
2019-05-20T10:34:47.335Z,5.05
2019-05-20T10:37:16.943Z,5.95
2019-05-20T10:39:46.007Z,4.28
2019-05-20T10:42:15.440Z,5.40
2019-05-20T10:44:44.608Z,4.78
2019-05-20T10:47:14.004Z,5.15
2019-05-20T10:49:43.022Z,5.28
2019-05-20T10:52:12.296Z,10.38
2019-05-20T10:54:41.684Z,7.80
2019-05-20T10:57:10.889Z,9.93
2019-05-20T10:59:40.195Z,3.75
2019-05-20T11:02:09.366Z,7.78
2019-05-20T11:04:38.762Z,3.70
2019-05-20T11:07:08.266Z,10.45
2019-05-20T11:09:37.572Z,7.53
2019-05-20T11:12:06.726Z,6.80
2019-05-20T11:14:36.028Z,5.28
2019-05-20T11:17:05.322Z,7.90
2019-05-20T11:19:34.565Z,5.83
2019-05-20T11:22:04.007Z,1.70
2019-05-20T11:24:33.237Z,3.72
2019-05-20T11:27:02.189Z,3.02
2019-05-20T11:29:31.616Z,5.00
2019-05-20T11:32:00.823Z,4.53
2019-05-20T11:34:29.962Z,9.03
2019-05-20T11:36:59.419Z,6.75
2019-05-20T11:39:33.363Z,4.47
2019-05-20T11:41:59.402Z,4.75
2019-05-20T11:44:28.374Z,3.12
2019-05-20T11:46:57.572Z,3.00
2019-05-20T11:49:29.026Z,4.35
2019-05-20T11:51:57.416Z,8.05
2019-05-20T11:54:26.678Z,6.33
2019-05-20T11:56:55.763Z,3.92
2019-05-20T11:59:25.075Z,4.72
2019-05-20T12:01:54.339Z,10.20
2019-05-20T12:04:23.384Z,9.90
2019-05-20T12:06:52.653Z,4.10
2019-05-20T12:09:21.787Z,8.40
2019-05-20T12:11:51.006Z,5.00
2019-05-20T12:14:20.831Z,12.60
2019-05-20T12:16:50.133Z,4.37
2019-05-20T12:19:19.412Z,13.70
2019-05-20T12:21:48.403Z,7.25
2019-05-20T12:24:17.667Z,4.37
2019-05-20T12:26:47.019Z,6.83
2019-05-20T12:29:16.354Z,9.43
2019-05-20T12:31:45.432Z,7.75
2019-05-20T12:34:14.652Z,3.60
2019-05-20T12:36:44.097Z,3.40
2019-05-20T12:39:13.434Z,5.75
2019-05-20T12:41:42.547Z,5.10
2019-05-20T12:44:13.240Z,5.10
2019-05-20T12:46:42.667Z,5.92
2019-05-20T12:49:11.803Z,4.40
2019-05-20T12:51:41.636Z,6.65
2019-05-20T12:54:11.070Z,9.45
2019-05-20T12:56:40.069Z,4.35
2019-05-20T12:59:09.731Z,5.20
2019-05-20T13:01:38.796Z,6.10
2019-05-20T13:04:08.146Z,5.28
2019-05-20T13:06:37.142Z,3.67
2019-05-20T13:09:07.117Z,6.03
2019-05-20T13:11:36.381Z,5.15
2019-05-20T13:14:05.754Z,5.55
2019-05-20T13:16:34.657Z,4.80
2019-05-20T13:19:03.583Z,5.60
2019-05-20T13:21:32.963Z,4.33
2019-05-20T13:24:02.022Z,9.43
2019-05-20T13:26:31.491Z,9.93
2019-05-20T13:29:00.974Z,6.95
2019-05-20T13:31:30.174Z,4.83
2019-05-20T13:33:59.577Z,9.23
2019-05-20T13:36:28.484Z,7.50
2019-05-20T13:38:57.541Z,6.35
2019-05-20T13:41:26.861Z,7.92
2019-05-20T13:43:55.892Z,5.50
2019-05-20T13:46:25.557Z,4.87
2019-05-20T13:48:54.721Z,4.40
2019-05-20T13:51:23.774Z,5.17
2019-05-20T13:53:52.811Z,6.42
2019-05-20T13:56:22.024Z,9.88
2019-05-20T13:58:51.441Z,8.90
2019-05-20T14:01:20.658Z,4.35
2019-05-20T14:03:49.632Z,6.33
2019-05-20T14:06:18.981Z,5.67
2019-05-20T14:08:48.016Z,3.85
2019-05-20T14:11:17.502Z,14.55
2019-05-20T14:13:46.680Z,6.95
2019-05-20T14:16:15.988Z,6.83
2019-05-20T14:18:45.302Z,11.08
2019-05-20T14:21:14.606Z,6.67
2019-05-20T14:23:43.979Z,8.50
2019-05-20T14:26:13.048Z,8.70
2019-05-20T14:28:42.212Z,4.90
2019-05-20T14:31:11.549Z,3.67
2019-05-20T14:33:40.786Z,8.63
2019-05-20T14:36:09.908Z,11.30
2019-05-20T14:38:39.027Z,14.05
2019-05-20T14:41:20.923Z,9.20
2019-05-20T14:43:38.667Z,6.22
2019-05-20T14:46:07.713Z,11.85
2019-05-20T14:48:37.395Z,6.20
2019-05-20T14:51:06.822Z,3.67
2019-05-20T14:53:36.237Z,6.30
2019-05-20T14:56:05.614Z,10.58
2019-05-20T14:58:34.792Z,6.85
2019-05-20T15:01:04.005Z,15.78
2019-05-20T15:03:33.296Z,8.08
2019-05-20T15:06:02.422Z,3.22
2019-05-20T15:08:34.410Z,7.80
2019-05-20T15:11:02.415Z,8.33
2019-05-20T15:13:31.682Z,6.97
2019-05-20T15:16:00.957Z,7.72
2019-05-20T15:18:30.315Z,6.45
2019-05-20T15:20:59.566Z,3.92
2019-05-20T15:23:28.573Z,8.75
2019-05-20T15:25:57.905Z,6.85
2019-05-20T15:28:26.982Z,4.35
2019-05-20T15:30:56.343Z,7.40
2019-05-20T15:33:25.544Z,7.83
2019-05-20T15:35:54.692Z,3.98
2019-05-20T15:38:23.811Z,3.85
2019-05-20T15:40:53.173Z,5.08
2019-05-20T15:43:22.339Z,5.03
2019-05-20T15:45:51.544Z,7.65
2019-05-20T15:48:20.451Z,5.45
2019-05-20T15:50:49.745Z,3.75
2019-05-20T15:53:18.977Z,7.62
2019-05-20T15:55:48.101Z,7.95
2019-05-20T15:58:17.505Z,5.53
2019-05-20T16:00:46.795Z,10.45
2019-05-20T16:03:16.054Z,5.42
2019-05-20T16:05:45.165Z,7.78
2019-05-20T16:08:14.662Z,16.17
2019-05-20T16:10:44.343Z,9.50
2019-05-20T16:13:13.446Z,8.75
2019-05-20T16:15:42.570Z,8.75
2019-05-20T16:18:11.932Z,5.10
2019-05-20T16:20:40.952Z,7.70
2019-05-20T16:23:10.165Z,7.58
2019-05-20T16:25:39.589Z,9.03
2019-05-20T16:28:08.680Z,6.60
2019-05-20T16:30:38.256Z,5.42
2019-05-20T16:33:07.453Z,6.85
2019-05-20T16:35:36.675Z,4.10
2019-05-20T16:38:06.117Z,7.15
2019-05-20T16:40:35.447Z,8.83
2019-05-20T16:43:04.696Z,8.93
2019-05-20T16:45:34.194Z,11.28
2019-05-20T16:48:03.328Z,12.75
2019-05-20T16:50:32.444Z,11.20
2019-05-20T16:53:01.553Z,9.25
2019-05-20T16:55:30.677Z,7.85
2019-05-20T16:57:59.956Z,8.85
2019-05-20T17:00:31.875Z,8.78
2019-05-20T17:02:59.554Z,7.95
2019-05-20T17:05:29.155Z,11.80
2019-05-20T17:07:58.776Z,10.45
2019-05-20T17:10:27.916Z,7.53
2019-05-20T17:12:57.372Z,13.70
2019-05-20T17:15:26.577Z,12.35
2019-05-20T17:17:55.793Z,13.62
2019-05-20T17:20:25.218Z,10.82
2019-05-20T17:22:54.716Z,19.60
2019-05-20T17:25:24.382Z,18.12
2019-05-20T17:27:53.834Z,22.50
2019-05-20T17:30:23.138Z,15.10
2019-05-20T17:32:52.387Z,13.20
2019-05-20T17:35:21.790Z,7.65
2019-05-20T17:37:54.721Z,11.78
2019-05-20T17:40:22.320Z,11.73
2019-05-20T17:42:51.594Z,9.88
2019-05-20T17:45:21.075Z,10.85
2019-05-20T17:47:50.474Z,11.85
2019-05-20T17:50:19.344Z,12.23
2019-05-20T17:52:48.577Z,10.65
2019-05-20T17:55:17.804Z,15.90
2019-05-20T17:57:46.967Z,10.32
2019-05-20T18:00:20.649Z,19.90
2019-05-20T18:02:49.543Z,10.05
2019-05-20T18:05:19.005Z,16.67
2019-05-20T18:07:47.917Z,12.50
2019-05-20T18:10:18.666Z,20.10
2019-05-20T18:12:47.715Z,15.98
2019-05-20T18:15:16.767Z,14.40
2019-05-20T18:17:46.181Z,17.65
2019-05-20T18:20:15.518Z,20.48
2019-05-20T18:22:44.893Z,23.42
2019-05-20T18:25:14.168Z,24.07
2019-05-20T18:27:43.489Z,19.55
2019-05-20T18:30:13.862Z,17.62
2019-05-20T18:32:43.243Z,16.12
2019-05-20T18:35:12.692Z,14.87
2019-05-20T18:37:42.008Z,29.55
2019-05-20T18:40:14.305Z,13.60
2019-05-20T18:42:42.056Z,24.52
2019-05-20T18:45:11.383Z,12.50
2019-05-20T18:47:40.962Z,12.40
2019-05-20T18:50:10.290Z,11.53
2019-05-20T18:52:39.557Z,16.85
2019-05-20T18:55:08.951Z,13.95
2019-05-20T18:57:38.145Z,23.50
2019-05-20T19:00:10.825Z,13.75
2019-05-20T19:02:40.316Z,15.98
2019-05-20T19:05:09.662Z,12.05
2019-05-20T19:07:38.857Z,13.32
2019-05-20T19:10:07.962Z,20.30
2019-05-20T19:12:37.484Z,14.15
2019-05-20T19:15:07.523Z,12.85
2019-05-20T19:17:36.942Z,12.23
2019-05-20T19:20:06.593Z,14.23
2019-05-20T19:22:35.839Z,15.45
2019-05-20T19:25:06.787Z,13.95
2019-05-20T19:27:35.550Z,15.00
2019-05-20T19:30:05.145Z,18.77
2019-05-20T19:32:34.187Z,20.15
2019-05-20T19:35:03.486Z,11.15
2019-05-20T19:37:32.433Z,18.15
2019-05-20T19:40:01.644Z,15.13
2019-05-20T19:42:31.397Z,13.72
2019-05-20T19:45:00.843Z,10.03
2019-05-20T19:47:29.950Z,13.38
2019-05-20T19:49:59.236Z,13.08
2019-05-20T19:52:28.527Z,14.93
2019-05-20T19:54:57.790Z,12.53
2019-05-20T19:57:27.732Z,15.98
2019-05-20T19:59:57.207Z,14.73
2019-05-20T20:02:26.107Z,16.32
2019-05-20T20:04:55.602Z,15.90
2019-05-20T20:07:24.695Z,14.00
2019-05-20T20:09:53.888Z,16.55
2019-05-20T20:12:23.140Z,11.83
2019-05-20T20:14:52.299Z,16.45
2019-05-20T20:17:21.564Z,13.40
2019-05-20T20:19:50.604Z,14.93
2019-05-20T20:22:19.529Z,13.40
2019-05-20T20:24:48.995Z,16.55
2019-05-20T20:27:18.108Z,18.57
2019-05-20T20:29:47.200Z,18.67
2019-05-20T20:32:16.323Z,17.80
2019-05-20T20:34:45.983Z,17.57
2019-05-20T20:37:15.212Z,12.47
2019-05-20T20:39:44.326Z,14.63
2019-05-20T20:42:13.641Z,11.93
2019-05-20T20:44:43.178Z,10.10
2019-05-20T20:47:12.421Z,10.53
2019-05-20T20:49:41.731Z,11.68
2019-05-20T20:52:10.738Z,13.80
2019-05-20T20:54:40.045Z,17.92
2019-05-20T20:57:09.301Z,10.18
2019-05-20T20:59:38.348Z,7.80
2019-05-20T21:02:07.761Z,6.92
2019-05-20T21:04:37.095Z,12.50
2019-05-20T21:07:06.201Z,12.70
2019-05-20T21:09:35.496Z,10.78
2019-05-20T21:12:04.582Z,9.88
2019-05-20T21:14:33.542Z,14.38
2019-05-20T21:17:03.048Z,11.03
2019-05-20T21:19:32.205Z,11.43
2019-05-20T21:22:01.373Z,11.35
2019-05-20T21:24:30.821Z,7.67
2019-05-20T21:26:59.958Z,13.18
2019-05-20T21:29:32.482Z,8.05
2019-05-20T21:32:00.393Z,8.20
2019-05-20T21:34:29.448Z,8.53
2019-05-20T21:36:58.873Z,11.00
2019-05-20T21:39:28.257Z,8.53
2019-05-20T21:41:57.286Z,10.00
2019-05-20T21:44:26.195Z,9.23
2019-05-20T21:46:55.201Z,7.78
2019-05-20T21:49:24.634Z,10.72
2019-05-20T21:51:53.978Z,8.20
2019-05-20T21:54:23.172Z,7.70
2019-05-20T21:56:52.499Z,10.90
2019-05-20T21:59:21.817Z,8.18
2019-05-20T22:01:51.022Z,8.25
2019-05-20T22:04:20.402Z,12.98
2019-05-20T22:06:49.741Z,9.88
2019-05-20T22:09:18.755Z,8.83
2019-05-20T22:11:47.701Z,8.25
2019-05-20T22:14:16.632Z,9.93
2019-05-20T22:16:45.632Z,11.90
2019-05-20T22:19:15.099Z,8.95
2019-05-20T22:21:48.683Z,4.55
2019-05-20T22:24:17.793Z,9.45
2019-05-20T22:26:47.100Z,5.35
2019-05-20T22:29:16.021Z,8.30
2019-05-20T22:31:45.298Z,9.88
2019-05-20T22:34:14.443Z,11.15
2019-05-20T22:36:43.500Z,7.70
2019-05-20T22:39:12.703Z,10.85
2019-05-20T22:41:42.197Z,6.25
2019-05-20T22:44:11.622Z,7.45
2019-05-20T22:46:40.631Z,8.03
2019-05-20T22:49:09.862Z,7.15
2019-05-20T22:51:39.141Z,8.30
2019-05-20T22:54:08.095Z,10.00
2019-05-20T22:56:37.170Z,11.60
2019-05-20T22:59:06.701Z,11.45
2019-05-20T23:01:35.889Z,4.53
2019-05-20T23:04:05.268Z,11.83
2019-05-20T23:06:34.444Z,7.80
2019-05-20T23:09:05.198Z,6.35
2019-05-20T23:11:34.143Z,5.40
2019-05-20T23:14:03.307Z,6.55
2019-05-20T23:16:32.722Z,11.65
2019-05-20T23:19:01.757Z,7.25
2019-05-20T23:21:31.125Z,8.40
2019-05-20T23:24:00.483Z,10.65
2019-05-20T23:26:29.294Z,7.17
2019-05-20T23:28:58.382Z,7.33
2019-05-20T23:31:28.067Z,13.95
2019-05-20T23:34:11.692Z,13.10
2019-05-20T23:36:28.101Z,7.72
2019-05-20T23:38:57.149Z,9.63
2019-05-20T23:41:26.201Z,10.63
2019-05-20T23:43:55.127Z,12.37
2019-05-20T23:46:24.216Z,11.38
2019-05-20T23:48:53.401Z,16.82
2019-05-20T23:51:22.445Z,9.63
2019-05-20T23:53:51.627Z,12.15
2019-05-20T23:56:20.805Z,13.18
2019-05-20T23:58:49.813Z,8.40
